Alsey, Illinois
Current Conditions -  °F | °C
As of 12:35 PM on Thursday 30 Oct 2014 (Local Time) from KIJX Reporting Station
Moderate Rain Moderate Rain  
Wind Chill: 11°   Ceiling: 6500
Heat Index: 11°   Visibility: 10mi
Dew Point:   Wind: 9mph
Humidity: 67%   Direction: 180°S
Pressure: 30.09"   Gusts: NA
Location:  39.56°N, 90.43°W
Report Text: KIJX 301735Z AUTO 18008KT 10SM RA OVC065 11/05 A3009 RMK AO2 T01100050
Loading
Personal Weather Stations






























Interactive Weather Map
Tropical Storm Tracking
New forecast layout! Learn more

10-Day Weather Forecast

Advertisements
Track Severe Weather on mobile